Wetterdaten: Woche 08.10.18 - 14.10.18 (KW41)
Datum Zeit Temp. 2m rel. Feuchte Luftdruck Regen Wind Richtung Sonne ET UV-Index Solar Taupunkt Ben
08.10.2018 00:00 7,6 C 85 % 1021,4 hPa 0,0 mm 0,0 km/h (0 Bft) N 0,00 h 0,0 mm 0,0 UV-I 0 W/m 5,2 C 0,0 km/h (0 Bft)
08.10.2018 01:00 7,1 C 86 % 1021,6 hPa 0,0 mm 0,7 km/h (0 Bft) O 0,00 h 0,0 mm 0,0 UV-I 0 W/m 5,0 C 2,2 km/h (1 Bft)
08.10.2018 02:00 6,8 C 86 % 1021,7 hPa 0,0 mm 0,0 km/h (0 Bft) N 0,00 h 0,0 mm 0,0 UV-I 0 W/m 4,6 C 0,0 km/h (0 Bft)
08.10.2018 03:00 6,2 C 88 % 1021,5 hPa 0,0 mm 0,0 km/h (0 Bft) N 0,00 h 0,0 mm 0,0 UV-I 0 W/m 4,4 C 0,0 km/h (0 Bft)
08.10.2018 04:00 5,8 C 89 % 1021,4 hPa 0,0 mm 0,0 km/h (0 Bft) N 0,00 h 0,0 mm 0,0 UV-I 0 W/m 4,1 C 0,0 km/h (0 Bft)
08.10.2018 05:00 5,5 C 90 % 1021,4 hPa 0,0 mm 0,0 km/h (0 Bft) N 0,00 h 0,0 mm 0,0 UV-I 0 W/m 4,0 C 0,2 km/h (0 Bft)
08.10.2018 06:00 5,1 C 91 % 1021,4 hPa 0,0 mm 0,1 km/h (0 Bft) N 0,00 h 0,0 mm 0,0 UV-I 0 W/m 3,8 C 0,6 km/h (0 Bft)
08.10.2018 07:00 4,9 C 92 % 1021,6 hPa 0,0 mm 0,0 km/h (0 Bft) N 0,08 h 0,0 mm 0,0 UV-I 7 W/m 3,7 C 0,2 km/h (0 Bft)
08.10.2018 08:00 5,2 C 94 % 1022,0 hPa 0,0 mm 0,2 km/h (0 Bft) N 0,67 h 0,0 mm 0,0 UV-I 69 W/m 4,4 C 1,8 km/h (1 Bft)
08.10.2018 09:00 6,6 C 94 % 1022,5 hPa 0,0 mm 0,7 km/h (0 Bft) O 0,92 h 0,0 mm 0,0 UV-I 186 W/m 5,8 C 3,7 km/h (1 Bft)
08.10.2018 10:00 8,9 C 87 % 1022,9 hPa 0,0 mm 0,9 km/h (0 Bft) O 1,00 h 0,1 mm 0,1 UV-I 313 W/m 6,9 C 4,3 km/h (1 Bft)
08.10.2018 11:00 11,1 C 78 % 1022,9 hPa 0,0 mm 1,1 km/h (1 Bft) O 1,00 h 0,1 mm 0,1 UV-I 403 W/m 7,4 C 4,3 km/h (1 Bft)
08.10.2018 12:00 13,4 C 67 % 1023,0 hPa 0,0 mm 1,4 km/h (1 Bft) O 1,00 h 0,2 mm 0,2 UV-I 483 W/m 7,4 C 5,2 km/h (1 Bft)
08.10.2018 13:00 15,0 C 58 % 1022,7 hPa 0,0 mm 1,6 km/h (1 Bft) O 1,00 h 0,3 mm 0,2 UV-I 469 W/m 6,9 C 5,9 km/h (2 Bft)
08.10.2018 14:00 16,3 C 55 % 1022,3 hPa 0,0 mm 2,8 km/h (1 Bft) O 1,00 h 0,3 mm 0,2 UV-I 431 W/m 7,1 C 7,4 km/h (2 Bft)
08.10.2018 15:00 16,3 C 55 % 1021,8 hPa 0,0 mm 0,6 km/h (0 Bft) O 1,00 h 0,2 mm 0,1 UV-I 309 W/m 7,2 C 4,2 km/h (1 Bft)
08.10.2018 16:00 16,3 C 55 % 1021,5 hPa 0,0 mm 0,7 km/h (0 Bft) NW 1,00 h 0,2 mm 0,0 UV-I 293 W/m 7,3 C 3,7 km/h (1 Bft)
08.10.2018 17:00 16,0 C 58 % 1021,2 hPa 0,0 mm 0,3 km/h (0 Bft) O 1,00 h 0,2 mm 0,0 UV-I 172 W/m 7,6 C 2,6 km/h (1 Bft)
08.10.2018 18:00 14,6 C 67 % 1020,9 hPa 0,0 mm 0,2 km/h (0 Bft) O 0,25 h 0,1 mm 0,0 UV-I 32 W/m 8,5 C 1,5 km/h (1 Bft)
08.10.2018 19:00 12,3 C 74 % 1021,3 hPa 0,0 mm 0,3 km/h (0 Bft) O 0,00 h 0,0 mm 0,0 UV-I 0 W/m 7,8 C 0,9 km/h (0 Bft)
08.10.2018 20:00 10,8 C 80 % 1021,6 hPa 0,0 mm 0,0 km/h (0 Bft) N 0,00 h 0,0 mm 0,0 UV-I 0 W/m 7,5 C 0,0 km/h (0 Bft)
08.10.2018 21:00 10,1 C 83 % 1021,6 hPa 0,0 mm 0,1 km/h (0 Bft) O 0,00 h 0,0 mm 0,0 UV-I 0 W/m 7,4 C 0,6 km/h (0 Bft)
08.10.2018 22:00 10,0 C 85 % 1021,7 hPa 0,0 mm 0,4 km/h (0 Bft) O 0,00 h 0,0 mm 0,0 UV-I 0 W/m 7,5 C 1,7 km/h (1 Bft)
08.10.2018 23:00 9,1 C 87 % 1022,2 hPa 0,0 mm 0,1 km/h (0 Bft) N 0,00 h 0,0 mm 0,0 UV-I 0 W/m 7,0 C 0,4 km/h (0 Bft)
09.10.2018 00:00 8,3 C 88 % 1022,4 hPa 0,0 mm 0,0 km/h (0 Bft) N 0,00 h 0,0 mm 0,0 UV-I 0 W/m 6,4 C 0,2 km/h (0 Bft)
09.10.2018 01:00 7,8 C 89 % 1022,4 hPa 0,0 mm 0,2 km/h (0 Bft) O 0,00 h 0,0 mm 0,0 UV-I 0 W/m 6,2 C 0,7 km/h (0 Bft)
09.10.2018 02:00 8,2 C 91 % 1021,8 hPa 0,0 mm 1,9 km/h (1 Bft) O 0,00 h 0,0 mm 0,0 UV-I 0 W/m 6,7 C 5,4 km/h (1 Bft)
09.10.2018 03:00 8,3 C 90 % 1021,5 hPa 0,0 mm 0,6 km/h (0 Bft) O 0,00 h 0,0 mm 0,0 UV-I 0 W/m 6,7 C 2,9 km/h (1 Bft)
09.10.2018 04:00 7,6 C 90 % 1021,6 hPa 0,0 mm 0,0 km/h (0 Bft) N 0,00 h 0,0 mm 0,0 UV-I 0 W/m 6,0 C 0,2 km/h (0 Bft)
09.10.2018 05:00 6,9 C 92 % 1021,1 hPa 0,0 mm 0,5 km/h (0 Bft) O 0,00 h 0,0 mm 0,0 UV-I 0 W/m 5,7 C 2,2 km/h (1 Bft)
09.10.2018 06:00 7,3 C 94 % 1020,7 hPa 0,0 mm 1,1 km/h (1 Bft) O 0,00 h 0,0 mm 0,0 UV-I 0 W/m 6,4 C 4,6 km/h (1 Bft)
09.10.2018 07:00 7,1 C 94 % 1020,9 hPa 0,0 mm 0,1 km/h (0 Bft) N 0,00 h 0,0 mm 0,0 UV-I 5 W/m 6,3 C 1,1 km/h (1 Bft)
09.10.2018 08:00 6,7 C 95 % 1021,5 hPa 0,0 mm 0,0 km/h (0 Bft) N 0,08 h 0,0 mm 0,0 UV-I 37 W/m 5,9 C 0,2 km/h (0 Bft)
09.10.2018 09:00 7,9 C 96 % 1022,1 hPa 0,0 mm 0,7 km/h (0 Bft) O 0,33 h 0,0 mm 0,0 UV-I 137 W/m 7,4 C 3,9 km/h (1 Bft)
09.10.2018 10:00 10,1 C 93 % 1022,4 hPa 0,0 mm 2,2 km/h (1 Bft) O 0,33 h 0,1 mm 0,1 UV-I 173 W/m 9,0 C 7,6 km/h (2 Bft)
09.10.2018 11:00 12,9 C 85 % 1022,5 hPa 0,0 mm 1,9 km/h (1 Bft) O 1,00 h 0,1 mm 0,1 UV-I 428 W/m 10,5 C 6,5 km/h (2 Bft)
09.10.2018 12:00 16,3 C 76 % 1022,1 hPa 0,0 mm 3,0 km/h (1 Bft) O 1,00 h 0,2 mm 0,2 UV-I 471 W/m 11,9 C 8,3 km/h (2 Bft)
09.10.2018 13:00 18,6 C 67 % 1021,8 hPa 0,0 mm 2,1 km/h (1 Bft) S 0,83 h 0,3 mm 0,2 UV-I 374 W/m 12,3 C 7,6 km/h (2 Bft)
09.10.2018 14:00 20,2 C 62 % 1021,1 hPa 0,0 mm 1,3 km/h (1 Bft) S-SO 0,75 h 0,2 mm 0,2 UV-I 376 W/m 12,6 C 6,5 km/h (2 Bft)
09.10.2018 15:00 21,3 C 58 % 1020,7 hPa 0,0 mm 1,2 km/h (1 Bft) S-SW 1,00 h 0,2 mm 0,1 UV-I 399 W/m 12,5 C 5,2 km/h (1 Bft)
09.10.2018 16:00 21,4 C 58 % 1020,4 hPa 0,0 mm 1,0 km/h (0 Bft) S-SW 1,00 h 0,2 mm 0,0 UV-I 328 W/m 12,9 C 4,2 km/h (1 Bft)
09.10.2018 17:00 20,8 C 61 % 1020,3 hPa 0,0 mm 0,0 km/h (0 Bft) N 0,08 h 0,2 mm 0,0 UV-I 93 W/m 13,0 C 0,2 km/h (0 Bft)
09.10.2018 18:00 18,9 C 69 % 1020,3 hPa 0,0 mm 0,0 km/h (0 Bft) N 0,17 h 0,1 mm 0,0 UV-I 23 W/m 13,1 C 0,0 km/h (0 Bft)
09.10.2018 19:00 16,4 C 77 % 1020,6 hPa 0,0 mm 0,0 km/h (0 Bft) N 0,00 h 0,0 mm 0,0 UV-I 5 W/m 12,4 C 0,0 km/h (0 Bft)
09.10.2018 20:00 14,5 C 84 % 1020,8 hPa 0,0 mm 0,0 km/h (0 Bft) N 0,00 h 0,0 mm 0,0 UV-I 0 W/m 11,7 C 0,6 km/h (0 Bft)
09.10.2018 21:00 13,3 C 87 % 1020,9 hPa 0,0 mm 0,0 km/h (0 Bft) N 0,00 h 0,0 mm 0,0 UV-I 0 W/m 11,1 C 0,0 km/h (0 Bft)
09.10.2018 22:00 12,3 C 88 % 1021,0 hPa 0,0 mm 0,0 km/h (0 Bft) N 0,00 h 0,0 mm 0,0 UV-I 0 W/m 10,3 C 0,0 km/h (0 Bft)
09.10.2018 23:00 11,4 C 89 % 1021,0 hPa 0,0 mm 0,0 km/h (0 Bft) N 0,00 h 0,0 mm 0,0 UV-I 0 W/m 9,6 C 0,0 km/h (0 Bft)
10.10.2018 00:00 10,7 C 90 % 1020,9 hPa 0,0 mm 0,0 km/h (0 Bft) N 0,00 h 0,0 mm 0,0 UV-I 0 W/m 9,2 C 0,2 km/h (0 Bft)
10.10.2018 01:00 10,9 C 94 % 1020,8 hPa 0,0 mm 0,4 km/h (0 Bft) S 0,00 h 0,0 mm 0,0 UV-I 0 W/m 9,9 C 2,8 km/h (1 Bft)
10.10.2018 02:00 11,1 C 94 % 1020,6 hPa 0,0 mm 0,2 km/h (0 Bft) N 0,00 h 0,0 mm 0,0 UV-I 0 W/m 10,2 C 1,8 km/h (1 Bft)
10.10.2018 03:00 10,5 C 94 % 1020,3 hPa 0,0 mm 0,1 km/h (0 Bft) N 0,00 h 0,0 mm 0,0 UV-I 0 W/m 9,5 C 1,1 km/h (1 Bft)
10.10.2018 04:00 10,6 C 95 % 1020,1 hPa 0,0 mm 0,3 km/h (0 Bft) S 0,00 h 0,0 mm 0,0 UV-I 0 W/m 9,8 C 2,2 km/h (1 Bft)
10.10.2018 05:00 10,2 C 95 % 1019,8 hPa 0,0 mm 0,3 km/h (0 Bft) N 0,00 h 0,0 mm 0,0 UV-I 0 W/m 9,5 C 2,0 km/h (1 Bft)
10.10.2018 06:00 9,9 C 95 % 1019,6 hPa 0,0 mm 0,1 km/h (0 Bft) N 0,00 h 0,0 mm 0,0 UV-I 0 W/m 9,1 C 1,1 km/h (1 Bft)
10.10.2018 07:00 9,0 C 95 % 1019,4 hPa 0,0 mm 0,0 km/h (0 Bft) N 0,00 h 0,0 mm 0,0 UV-I 3 W/m 8,2 C 0,0 km/h (0 Bft)
10.10.2018 08:00 8,8 C 96 % 1019,4 hPa 0,0 mm 0,3 km/h (0 Bft) S-SO 0,33 h 0,0 mm 0,0 UV-I 56 W/m 8,1 C 1,8 km/h (1 Bft)
10.10.2018 09:00 10,6 C 97 % 1019,4 hPa 0,0 mm 1,0 km/h (0 Bft) S-SW 1,00 h 0,0 mm 0,0 UV-I 171 W/m 10,2 C 5,4 km/h (1 Bft)
10.10.2018 10:00 13,2 C 94 % 1019,1 hPa 0,0 mm 2,3 km/h (1 Bft) O 1,00 h 0,1 mm 0,1 UV-I 295 W/m 12,2 C 8,2 km/h (2 Bft)
10.10.2018 11:00 16,8 C 79 % 1018,5 hPa 0,0 mm 3,4 km/h (1 Bft) O 1,00 h 0,2 mm 0,1 UV-I 405 W/m 13,2 C 10,9 km/h (2 Bft)
10.10.2018 12:00 19,9 C 66 % 1017,6 hPa 0,0 mm 4,5 km/h (1 Bft) S-SO 1,00 h 0,2 mm 0,2 UV-I 476 W/m 13,3 C 12,0 km/h (2 Bft)
10.10.2018 13:00 22,1 C 57 % 1016,7 hPa 0,0 mm 3,9 km/h (1 Bft) S-SO 1,00 h 0,3 mm 0,2 UV-I 498 W/m 13,2 C 12,2 km/h (2 Bft)
10.10.2018 14:00 24,3 C 49 % 1015,5 hPa 0,0 mm 4,8 km/h (1 Bft) S 1,00 h 0,3 mm 0,2 UV-I 472 W/m 12,9 C 13,3 km/h (3 Bft)
10.10.2018 15:00 24,9 C 46 % 1014,5 hPa 0,0 mm 4,3 km/h (1 Bft) SO 1,00 h 0,3 mm 0,1 UV-I 403 W/m 12,5 C 12,9 km/h (3 Bft)
10.10.2018 16:00 24,5 C 42 % 1013,7 hPa 0,0 mm 4,7 km/h (1 Bft) S-SO 1,00 h 0,3 mm 0,0 UV-I 301 W/m 10,8 C 12,6 km/h (3 Bft)
10.10.2018 17:00 23,1 C 46 % 1013,3 hPa 0,0 mm 3,4 km/h (1 Bft) S-SO 1,00 h 0,2 mm 0,0 UV-I 172 W/m 10,8 C 10,9 km/h (2 Bft)
10.10.2018 18:00 21,8 C 51 % 1013,0 hPa 0,0 mm 3,2 km/h (1 Bft) O 0,17 h 0,1 mm 0,0 UV-I 20 W/m 11,3 C 9,1 km/h (2 Bft)
10.10.2018 19:00 19,9 C 61 % 1013,0 hPa 0,0 mm 2,0 km/h (1 Bft) S-SO 0,00 h 0,0 mm 0,0 UV-I 0 W/m 12,2 C 7,6 km/h (2 Bft)
10.10.2018 20:00 17,7 C 69 % 1013,0 hPa 0,0 mm 1,0 km/h (0 Bft) SO 0,00 h 0,0 mm 0,0 UV-I 0 W/m 11,9 C 3,9 km/h (1 Bft)
10.10.2018 21:00 17,2 C 72 % 1013,0 hPa 0,0 mm 1,7 km/h (1 Bft) S-SO 0,00 h 0,0 mm 0,0 UV-I 0 W/m 12,1 C 5,9 km/h (2 Bft)
10.10.2018 22:00 16,7 C 76 % 1012,7 hPa 0,0 mm 3,6 km/h (1 Bft) S-SO 0,00 h 0,0 mm 0,0 UV-I 0 W/m 12,4 C 10,2 km/h (2 Bft)
10.10.2018 23:00 16,6 C 74 % 1012,5 hPa 0,0 mm 4,1 km/h (1 Bft) S-SO 0,00 h 0,0 mm 0,0 UV-I 0 W/m 12,0 C 11,7 km/h (2 Bft)
11.10.2018 00:00 15,9 C 76 % 1012,4 hPa 0,0 mm 2,5 km/h (1 Bft) S-SO 0,00 h 0,0 mm 0,0 UV-I 0 W/m 11,7 C 8,1 km/h (2 Bft)
11.10.2018 01:00 15,1 C 79 % 1012,3 hPa 0,0 mm 2,1 km/h (1 Bft) S-SO 0,00 h 0,0 mm 0,0 UV-I 0 W/m 11,4 C 7,6 km/h (2 Bft)
11.10.2018 02:00 14,5 C 80 % 1012,2 hPa 0,0 mm 1,7 km/h (1 Bft) S-SO 0,00 h 0,0 mm 0,0 UV-I 0 W/m 11,1 C 6,1 km/h (2 Bft)
11.10.2018 03:00 13,7 C 82 % 1012,0 hPa 0,0 mm 0,7 km/h (0 Bft) O 0,00 h 0,0 mm 0,0 UV-I 0 W/m 10,7 C 2,6 km/h (1 Bft)
11.10.2018 04:00 13,1 C 85 % 1011,6 hPa 0,0 mm 1,9 km/h (1 Bft) O 0,00 h 0,0 mm 0,0 UV-I 0 W/m 10,5 C 5,5 km/h (1 Bft)
11.10.2018 05:00 13,4 C 83 % 1011,5 hPa 0,0 mm 1,4 km/h (1 Bft) O 0,00 h 0,0 mm 0,0 UV-I 0 W/m 10,6 C 5,4 km/h (1 Bft)
11.10.2018 06:00 12,9 C 85 % 1011,6 hPa 0,0 mm 1,1 km/h (0 Bft) O 0,00 h 0,0 mm 0,0 UV-I 0 W/m 10,5 C 4,4 km/h (1 Bft)
11.10.2018 07:00 12,4 C 86 % 1012,0 hPa 0,0 mm 1,3 km/h (1 Bft) S 0,00 h 0,0 mm 0,0 UV-I 5 W/m 10,2 C 5,2 km/h (1 Bft)
11.10.2018 08:00 12,7 C 87 % 1012,4 hPa 0,0 mm 3,7 km/h (1 Bft) S-SO 1,00 h 0,0 mm 0,0 UV-I 64 W/m 10,6 C 11,3 km/h (2 Bft)
11.10.2018 09:00 13,9 C 85 % 1013,1 hPa 0,0 mm 3,4 km/h (1 Bft) O 1,00 h 0,0 mm 0,0 UV-I 175 W/m 11,4 C 10,4 km/h (2 Bft)
11.10.2018 10:00 16,0 C 79 % 1013,2 hPa 0,0 mm 4,8 km/h (1 Bft) O 0,83 h 0,1 mm 0,0 UV-I 301 W/m 12,3 C 13,0 km/h (3 Bft)
11.10.2018 11:00 18,0 C 72 % 1013,2 hPa 0,0 mm 4,1 km/h (1 Bft) O 0,83 h 0,2 mm 0,1 UV-I 326 W/m 12,8 C 11,3 km/h (2 Bft)
11.10.2018 12:00 20,6 C 64 % 1012,9 hPa 0,0 mm 4,4 km/h (1 Bft) O 0,92 h 0,2 mm 0,1 UV-I 384 W/m 13,4 C 11,7 km/h (2 Bft)
11.10.2018 13:00 21,6 C 60 % 1012,4 hPa 0,0 mm 6,0 km/h (2 Bft) O 0,17 h 0,2 mm 0,1 UV-I 264 W/m 13,4 C 16,3 km/h (3 Bft)
11.10.2018 14:00 21,5 C 60 % 1012,3 hPa 0,0 mm 6,0 km/h (2 Bft) O 0,00 h 0,2 mm 0,0 UV-I 129 W/m 13,4 C 16,6 km/h (3 Bft)
11.10.2018 15:00 21,1 C 61 % 1012,3 hPa 0,0 mm 4,7 km/h (1 Bft) O 0,00 h 0,1 mm 0,0 UV-I 105 W/m 13,3 C 13,7 km/h (3 Bft)
11.10.2018 16:00 21,5 C 62 % 1012,2 hPa 0,0 mm 3,8 km/h (1 Bft) O 0,17 h 0,1 mm 0,0 UV-I 144 W/m 13,8 C 12,0 km/h (2 Bft)
11.10.2018 17:00 21,3 C 61 % 1011,9 hPa 0,0 mm 3,9 km/h (1 Bft) O 0,50 h 0,1 mm 0,0 UV-I 130 W/m 13,6 C 12,4 km/h (3 Bft)
11.10.2018 18:00 21,0 C 61 % 1012,2 hPa 0,0 mm 3,8 km/h (1 Bft) O 0,17 h 0,1 mm 0,0 UV-I 25 W/m 13,1 C 12,6 km/h (3 Bft)
11.10.2018 19:00 19,5 C 67 % 1012,6 hPa 0,0 mm 3,3 km/h (1 Bft) O 0,00 h 0,0 mm 0,0 UV-I 0 W/m 13,1 C 9,1 km/h (2 Bft)
11.10.2018 20:00 18,5 C 70 % 1013,1 hPa 0,0 mm 3,1 km/h (1 Bft) O 0,00 h 0,0 mm 0,0 UV-I 0 W/m 13,0 C 9,6 km/h (2 Bft)
11.10.2018 21:00 17,5 C 74 % 1013,3 hPa 0,0 mm 2,1 km/h (1 Bft) O 0,00 h 0,0 mm 0,0 UV-I 0 W/m 12,8 C 6,5 km/h (2 Bft)
11.10.2018 22:00 16,8 C 77 % 1013,5 hPa 0,0 mm 3,4 km/h (1 Bft) S-SO 0,00 h 0,0 mm 0,0 UV-I 0 W/m 12,8 C 10,4 km/h (2 Bft)
11.10.2018 23:00 16,3 C 79 % 1013,6 hPa 0,0 mm 3,3 km/h (1 Bft) S-SO 0,00 h 0,0 mm 0,0 UV-I 0 W/m 12,6 C 9,4 km/h (2 Bft)
12.10.2018 00:00 15,7 C 81 % 1013,6 hPa 0,0 mm 2,5 km/h (1 Bft) S-SW 0,00 h 0,0 mm 0,0 UV-I 0 W/m 12,4 C 9,1 km/h (2 Bft)
12.10.2018 01:00 15,4 C 82 % 1014,4 hPa 0,0 mm 1,8 km/h (1 Bft) S 0,00 h 0,0 mm 0,0 UV-I 0 W/m 12,2 C 7,2 km/h (2 Bft)
12.10.2018 02:00 15,2 C 82 % 1014,8 hPa 0,0 mm 2,5 km/h (1 Bft) S 0,00 h 0,0 mm 0,0 UV-I 0 W/m 12,2 C 8,7 km/h (2 Bft)
12.10.2018 03:00 14,8 C 83 % 1015,0 hPa 0,0 mm 3,3 km/h (1 Bft) S-SO 0,00 h 0,0 mm 0,0 UV-I 0 W/m 12,0 C 9,8 km/h (2 Bft)
12.10.2018 04:00 14,9 C 83 % 1015,5 hPa 0,0 mm 2,5 km/h (1 Bft) S 0,00 h 0,0 mm 0,0 UV-I 0 W/m 11,9 C 8,9 km/h (2 Bft)
12.10.2018 05:00 15,1 C 82 % 1016,2 hPa 0,0 mm 2,1 km/h (1 Bft) S-SW 0,00 h 0,0 mm 0,0 UV-I 0 W/m 12,1 C 8,5 km/h (2 Bft)
12.10.2018 06:00 15,0 C 83 % 1016,7 hPa 0,0 mm 2,2 km/h (1 Bft) S-SO 0,00 h 0,0 mm 0,0 UV-I 0 W/m 12,1 C 8,5 km/h (2 Bft)
12.10.2018 07:00 14,5 C 84 % 1017,5 hPa 0,0 mm 1,1 km/h (0 Bft) S-SW 0,00 h 0,0 mm 0,0 UV-I 4 W/m 11,9 C 5,0 km/h (1 Bft)
12.10.2018 08:00 14,3 C 86 % 1018,3 hPa 0,0 mm 2,5 km/h (1 Bft) S-SO 0,25 h 0,0 mm 0,0 UV-I 45 W/m 12,0 C 8,5 km/h (2 Bft)
12.10.2018 09:00 15,4 C 84 % 1019,2 hPa 0,0 mm 2,9 km/h (1 Bft) O 0,50 h 0,0 mm 0,0 UV-I 134 W/m 12,7 C 8,5 km/h (2 Bft)
12.10.2018 10:00 17,7 C 78 % 1019,7 hPa 0,0 mm 3,7 km/h (1 Bft) O 0,25 h 0,1 mm 0,0 UV-I 190 W/m 13,7 C 11,8 km/h (2 Bft)
12.10.2018 11:00 19,3 C 73 % 1019,9 hPa 0,0 mm 4,1 km/h (1 Bft) O 0,42 h 0,1 mm 0,1 UV-I 247 W/m 14,3 C 12,8 km/h (3 Bft)
12.10.2018 12:00 21,8 C 65 % 1019,5 hPa 0,0 mm 6,3 km/h (2 Bft) S 1,00 h 0,2 mm 0,2 UV-I 449 W/m 14,9 C 17,0 km/h (3 Bft)
12.10.2018 13:00 24,6 C 54 % 1019,1 hPa 0,0 mm 6,7 km/h (2 Bft) S 1,00 h 0,3 mm 0,2 UV-I 470 W/m 14,6 C 17,4 km/h (3 Bft)
12.10.2018 14:00 26,2 C 46 % 1018,9 hPa 0,0 mm 10,2 km/h (2 Bft) SW 1,00 h 0,3 mm 0,1 UV-I 393 W/m 13,6 C 24,3 km/h (4 Bft)
12.10.2018 15:00 26,9 C 43 % 1019,0 hPa 0,0 mm 9,3 km/h (2 Bft) S-SW 1,00 h 0,3 mm 0,1 UV-I 353 W/m 13,2 C 23,5 km/h (4 Bft)
12.10.2018 16:00 26,1 C 44 % 1019,3 hPa 0,0 mm 10,0 km/h (2 Bft) S-SW 0,92 h 0,3 mm 0,0 UV-I 231 W/m 12,8 C 23,0 km/h (4 Bft)
12.10.2018 17:00 25,2 C 46 % 1019,2 hPa 0,0 mm 9,1 km/h (2 Bft) S-SW 0,75 h 0,2 mm 0,0 UV-I 135 W/m 12,9 C 21,1 km/h (4 Bft)
12.10.2018 18:00 23,9 C 51 % 1019,5 hPa 0,0 mm 6,3 km/h (2 Bft) S-SW 0,08 h 0,1 mm 0,0 UV-I 16 W/m 13,0 C 15,3 km/h (3 Bft)
12.10.2018 19:00 22,4 C 57 % 1019,9 hPa 0,0 mm 3,7 km/h (1 Bft) S-SW 0,00 h 0,1 mm 0,0 UV-I 0 W/m 13,5 C 10,2 km/h (2 Bft)
12.10.2018 20:00 21,1 C 63 % 1020,2 hPa 0,0 mm 2,8 km/h (1 Bft) S 0,00 h 0,0 mm 0,0 UV-I 0 W/m 13,8 C 7,6 km/h (2 Bft)
12.10.2018 21:00 20,1 C 67 % 1020,5 hPa 0,0 mm 2,4 km/h (1 Bft) S 0,00 h 0,0 mm 0,0 UV-I 0 W/m 13,8 C 8,7 km/h (2 Bft)
12.10.2018 22:00 19,2 C 71 % 1020,9 hPa 0,0 mm 1,7 km/h (1 Bft) S 0,00 h 0,0 mm 0,0 UV-I 0 W/m 13,7 C 5,9 km/h (2 Bft)
12.10.2018 23:00 18,5 C 73 % 1020,9 hPa 0,0 mm 2,6 km/h (1 Bft) S-SO 0,00 h 0,0 mm 0,0 UV-I 0 W/m 13,5 C 8,2 km/h (2 Bft)
13.10.2018 00:00 17,9 C 76 % 1020,8 hPa 0,0 mm 2,6 km/h (1 Bft) S-SO 0,00 h 0,0 mm 0,0 UV-I 0 W/m 13,6 C 8,7 km/h (2 Bft)
13.10.2018 01:00 17,5 C 78 % 1020,4 hPa 0,0 mm 1,9 km/h (1 Bft) S-SO 0,00 h 0,0 mm 0,0 UV-I 0 W/m 13,7 C 6,5 km/h (2 Bft)
13.10.2018 02:00 16,9 C 81 % 1020,4 hPa 0,0 mm 1,8 km/h (1 Bft) S-SO 0,00 h 0,0 mm 0,0 UV-I 0 W/m 13,5 C 7,4 km/h (2 Bft)
13.10.2018 03:00 16,6 C 81 % 1020,6 hPa 0,0 mm 2,1 km/h (1 Bft) S-SO 0,00 h 0,0 mm 0,0 UV-I 0 W/m 13,4 C 7,8 km/h (2 Bft)
13.10.2018 04:00 16,0 C 83 % 1020,5 hPa 0,0 mm 2,5 km/h (1 Bft) S 0,00 h 0,0 mm 0,0 UV-I 0 W/m 13,1 C 9,1 km/h (2 Bft)
13.10.2018 05:00 15,9 C 83 % 1020,6 hPa 0,0 mm 1,4 km/h (1 Bft) S 0,00 h 0,0 mm 0,0 UV-I 0 W/m 13,0 C 6,3 km/h (2 Bft)
13.10.2018 06:00 15,4 C 83 % 1020,7 hPa 0,0 mm 0,3 km/h (0 Bft) N 0,00 h 0,0 mm 0,0 UV-I 0 W/m 12,6 C 1,8 km/h (1 Bft)
13.10.2018 07:00 14,9 C 85 % 1020,2 hPa 0,0 mm 1,0 km/h (0 Bft) S 0,00 h 0,0 mm 0,0 UV-I 5 W/m 12,4 C 5,9 km/h (2 Bft)
13.10.2018 08:00 15,1 C 84 % 1020,1 hPa 0,0 mm 1,6 km/h (1 Bft) S-SO 0,42 h 0,0 mm 0,0 UV-I 48 W/m 12,4 C 6,5 km/h (2 Bft)
13.10.2018 09:00 16,2 C 82 % 1020,0 hPa 0,0 mm 2,7 km/h (1 Bft) S-SO 1,00 h 0,0 mm 0,0 UV-I 165 W/m 13,0 C 10,0 km/h (2 Bft)
13.10.2018 10:00 18,6 C 73 % 1019,8 hPa 0,0 mm 6,3 km/h (2 Bft) O 1,00 h 0,1 mm 0,1 UV-I 300 W/m 13,7 C 19,2 km/h (3 Bft)
13.10.2018 11:00 21,4 C 64 % 1019,5 hPa 0,0 mm 6,8 km/h (2 Bft) S-SO 1,00 h 0,2 mm 0,1 UV-I 383 W/m 14,2 C 20,7 km/h (4 Bft)
13.10.2018 12:00 23,9 C 55 % 1019,2 hPa 0,0 mm 7,2 km/h (2 Bft) O 1,00 h 0,3 mm 0,2 UV-I 451 W/m 14,1 C 19,3 km/h (3 Bft)
13.10.2018 13:00 26,0 C 48 % 1018,4 hPa 0,0 mm 7,6 km/h (2 Bft) S-SO 1,00 h 0,3 mm 0,2 UV-I 472 W/m 14,1 C 23,0 km/h (4 Bft)
13.10.2018 14:00 27,9 C 42 % 1017,3 hPa 0,0 mm 8,1 km/h (2 Bft) SO 1,00 h 0,4 mm 0,2 UV-I 446 W/m 13,6 C 22,9 km/h (4 Bft)
13.10.2018 15:00 27,9 C 41 % 1016,7 hPa 0,0 mm 8,0 km/h (2 Bft) SO 1,00 h 0,4 mm 0,1 UV-I 376 W/m 13,5 C 24,1 km/h (4 Bft)
13.10.2018 16:00 26,9 C 43 % 1016,1 hPa 0,0 mm 7,1 km/h (2 Bft) S-SO 1,00 h 0,3 mm 0,0 UV-I 274 W/m 13,2 C 21,6 km/h (4 Bft)
13.10.2018 17:00 25,6 C 44 % 1015,4 hPa 0,0 mm 6,2 km/h (2 Bft) S-SO 1,00 h 0,2 mm 0,0 UV-I 146 W/m 12,6 C 19,1 km/h (3 Bft)
13.10.2018 18:00 24,2 C 47 % 1015,0 hPa 0,0 mm 4,0 km/h (1 Bft) O 0,00 h 0,1 mm 0,0 UV-I 13 W/m 12,0 C 11,5 km/h (2 Bft)
13.10.2018 19:00 22,5 C 49 % 1015,1 hPa 0,0 mm 4,4 km/h (1 Bft) O 0,00 h 0,1 mm 0,0 UV-I 0 W/m 11,2 C 13,3 km/h (3 Bft)
13.10.2018 20:00 21,2 C 52 % 1014,8 hPa 0,0 mm 3,4 km/h (1 Bft) O 0,00 h 0,0 mm 0,0 UV-I 0 W/m 11,0 C 9,1 km/h (2 Bft)
13.10.2018 21:00 20,1 C 55 % 1014,8 hPa 0,0 mm 1,8 km/h (1 Bft) O 0,00 h 0,0 mm 0,0 UV-I 0 W/m 10,8 C 5,3 km/h (1 Bft)
13.10.2018 22:00 18,9 C 60 % 1014,5 hPa 0,0 mm 2,2 km/h (1 Bft) O 0,00 h 0,0 mm 0,0 UV-I 0 W/m 11,0 C 6,1 km/h (2 Bft)
13.10.2018 23:00 18,0 C 64 % 1014,0 hPa 0,0 mm 2,3 km/h (1 Bft) O 0,00 h 0,0 mm 0,0 UV-I 0 W/m 11,0 C 7,6 km/h (2 Bft)
14.10.2018 00:00 17,3 C 66 % 1013,8 hPa 0,0 mm 0,9 km/h (0 Bft) O 0,00 h 0,0 mm 0,0 UV-I 0 W/m 10,9 C 3,9 km/h (1 Bft)
14.10.2018 01:00 15,7 C 72 % 1013,4 hPa 0,0 mm 0,3 km/h (0 Bft) N 0,00 h 0,0 mm 0,0 UV-I 0 W/m 10,6 C 1,1 km/h (1 Bft)
14.10.2018 02:00 14,3 C 78 % 1013,0 hPa 0,0 mm 0,0 km/h (0 Bft) N 0,00 h 0,0 mm 0,0 UV-I 0 W/m 10,5 C 0,7 km/h (0 Bft)
14.10.2018 03:00 13,7 C 81 % 1012,5 hPa 0,0 mm 0,1 km/h (0 Bft) N 0,00 h 0,0 mm 0,0 UV-I 0 W/m 10,4 C 0,7 km/h (0 Bft)
14.10.2018 04:00 13,0 C 83 % 1012,0 hPa 0,0 mm 0,0 km/h (0 Bft) N 0,00 h 0,0 mm 0,0 UV-I 0 W/m 10,1 C 0,4 km/h (0 Bft)
14.10.2018 05:00 12,7 C 84 % 1011,4 hPa 0,0 mm 0,5 km/h (0 Bft) O 0,00 h 0,0 mm 0,0 UV-I 0 W/m 10,1 C 2,4 km/h (1 Bft)
14.10.2018 06:00 13,3 C 82 % 1010,9 hPa 0,0 mm 2,8 km/h (1 Bft) O 0,00 h 0,0 mm 0,0 UV-I 0 W/m 10,3 C 8,5 km/h (2 Bft)
14.10.2018 07:00 14,4 C 79 % 1010,6 hPa 0,0 mm 3,7 km/h (1 Bft) O 0,00 h 0,0 mm 0,0 UV-I 5 W/m 10,7 C 11,7 km/h (2 Bft)
14.10.2018 08:00 14,5 C 79 % 1010,7 hPa 0,0 mm 2,5 km/h (1 Bft) SO 0,83 h 0,0 mm 0,0 UV-I 48 W/m 10,8 C 9,1 km/h (2 Bft)
14.10.2018 09:00 15,5 C 77 % 1010,8 hPa 0,0 mm 4,1 km/h (1 Bft) O 1,00 h 0,0 mm 0,0 UV-I 164 W/m 11,5 C 12,0 km/h (2 Bft)
14.10.2018 10:00 17,8 C 69 % 1010,8 hPa 0,0 mm 6,3 km/h (2 Bft) O 1,00 h 0,1 mm 0,0 UV-I 287 W/m 12,0 C 16,5 km/h (3 Bft)
14.10.2018 11:00 20,0 C 62 % 1010,5 hPa 0,0 mm 6,5 km/h (2 Bft) S-SO 1,00 h 0,2 mm 0,1 UV-I 379 W/m 12,4 C 17,9 km/h (3 Bft)
14.10.2018 12:00 22,7 C 52 % 1010,1 hPa 0,0 mm 8,1 km/h (2 Bft) S 1,00 h 0,3 mm 0,2 UV-I 450 W/m 12,3 C 23,3 km/h (4 Bft)
14.10.2018 13:00 24,9 C 44 % 1009,7 hPa 0,0 mm 11,6 km/h (2 Bft) S 1,00 h 0,3 mm 0,2 UV-I 467 W/m 11,9 C 27,0 km/h (4 Bft)
14.10.2018 14:00 26,3 C 42 % 1009,1 hPa 0,0 mm 8,9 km/h (2 Bft) S-SW 1,00 h 0,4 mm 0,1 UV-I 441 W/m 12,2 C 23,1 km/h (4 Bft)
14.10.2018 15:00 27,0 C 42 % 1008,7 hPa 0,0 mm 7,7 km/h (2 Bft) O-SO 1,00 h 0,3 mm 0,1 UV-I 370 W/m 12,8 C 22,0 km/h (4 Bft)
14.10.2018 16:00 25,8 C 43 % 1008,1 hPa 0,0 mm 9,4 km/h (2 Bft) O-SO 1,00 h 0,3 mm 0,0 UV-I 270 W/m 12,1 C 28,3 km/h (4 Bft)
14.10.2018 17:00 24,6 C 45 % 1007,8 hPa 0,0 mm 8,0 km/h (2 Bft) O 0,92 h 0,2 mm 0,0 UV-I 132 W/m 11,7 C 25,0 km/h (4 Bft)
14.10.2018 18:00 23,0 C 48 % 1008,3 hPa 0,0 mm 4,0 km/h (1 Bft) O 0,00 h 0,1 mm 0,0 UV-I 8 W/m 11,3 C 12,6 km/h (3 Bft)
14.10.2018 19:00 21,4 C 52 % 1008,7 hPa 0,0 mm 2,8 km/h (1 Bft) O 0,00 h 0,0 mm 0,0 UV-I 0 W/m 11,1 C 9,6 km/h (2 Bft)
14.10.2018 20:00 20,3 C 56 % 1008,9 hPa 0,0 mm 1,9 km/h (1 Bft) S 0,00 h 0,0 mm 0,0 UV-I 0 W/m 11,1 C 7,2 km/h (2 Bft)
14.10.2018 21:00 19,0 C 61 % 1009,0 hPa 0,0 mm 3,3 km/h (1 Bft) S 0,00 h 0,0 mm 0,0 UV-I 0 W/m 11,3 C 8,3 km/h (2 Bft)
14.10.2018 22:00 18,1 C 64 % 1009,3 hPa 0,0 mm 3,2 km/h (1 Bft) O 0,00 h 0,0 mm 0,0 UV-I 0 W/m 11,2 C 10,2 km/h (2 Bft)
14.10.2018 23:00 17,5 C 66 % 1009,8 hPa 0,0 mm 0,9 km/h (0 Bft) O 0,00 h 0,0 mm 0,0 UV-I 0 W/m 11,0 C 4,1 km/h (1 Bft)
Min-Datum _ 08.10.18 10.10.18 14.10.18 - 08.10.18 - - - - - 08.10.18 08.10.18
_ Min-Zeit 07:25 16:10 17:00 - 00:00 - - - - - 07:25 00:00
Minimum _ 4,8 C 40 % 1007,6 hPa - 0,0 km/h (0 Bft) - - - - - 3,5 C 0,0 km/h (0 Bft)
Max-Datum _ 13.10.18 10.10.18 08.10.18 08.10.18 14.10.18 - 08.10.18 13.10.18 08.10.18 09.10.18 12.10.18 14.10.18
_ Max-Zeit 14:40 09:35 11:45 00:00 13:25 - 07:55 14:00 12:00 12:35 12:55 16:20
Maximum _ 28,3 C 98 % 1023,1 hPa 0,0 mm 14,3 km/h
S (3 Bft)
- 0,08 h 0,4 mm 0,2 UV-I 581 W/m 15,3 C 40,0 km/h
S-SO (6 Bft)
Durchschnitt _ 16,3 C 73 % 1017,0 hPa #0,0 mm 2,7 km/h (1 Bft) O #57:55 h #13,309 mm 0,1 UV-I 237 W/m 10,8 C 8,2 km/h (2 Bft)



© 1998 - 2018 www.pulheimwetter.de